Current Weather

Vienna Intl Apt

Schwechat, Austria (LOWW)

Report from: Wednesday, May 29, 2024 10:50 AM CEST
Current time: Wednesday, May 29, 2024 11:32 AM CEST

Nearby weather – Weather history – Daily summaries
Weather forecast

Temperature19.0°C (66.2°F)
Dew point11.0°C (51.8°F)
Winds 10 kts (5.1 m/s, 11.5 mph) Vrb
Winds variableWinds variable from Northwest (310°) to North-Northeast (20°)
Visibility6.2 mi. (10 km)
Clouds Few clouds 4,000 ft. (1,219 m)
Altimeter30.00 in.Hg (1016 mB)
Relative humidity60 %
Density altitude562 ft. (171 m)
Remarks No significant changes expected in the next two hours
Flight conditions Visual Meteorological Conditions
Raw dataLOWW 290850Z 35010KT 310V020 9999 FEW040 19/11 Q1016 NOSIG
An error has occurred. This application may no longer respond until reloaded. Reload 🗙